sensor_id;sensor_type;location;lat;lon;timestamp;temperature;humidity
16505;HTU21D;8365;51.030;4.696;2023-05-29T00:01:08;16.70;101.53
16505;HTU21D;8365;51.030;4.696;2023-05-29T00:03:41;16.57;103.21
16505;HTU21D;8365;51.030;4.696;2023-05-29T00:06:13;16.60;103.48
16505;HTU21D;8365;51.030;4.696;2023-05-29T00:08:43;16.34;106.02
16505;HTU21D;8365;51.030;4.696;2023-05-29T00:11:14;16.36;105.23
16505;HTU21D;8365;51.030;4.696;2023-05-29T00:13:44;16.22;106.15
16505;HTU21D;8365;51.030;4.696;2023-05-29T00:16:15;16.24;105.95
16505;HTU21D;8365;51.030;4.696;2023-05-29T00:18:48;16.24;105.99
16505;HTU21D;8365;51.030;4.696;2023-05-29T00:21:20;16.26;106.41
16505;HTU21D;8365;51.030;4.696;2023-05-29T00:23:53;16.25;106.08
16505;HTU21D;8365;51.030;4.696;2023-05-29T00:26:24;16.33;105.89
16505;HTU21D;8365;51.030;4.696;2023-05-29T00:28:55;16.27;107.25
16505;HTU21D;8365;51.030;4.696;2023-05-29T00:31:26;16.14;106.74
16505;HTU21D;8365;51.030;4.696;2023-05-29T00:33:56;16.15;107.51
16505;HTU21D;8365;51.030;4.696;2023-05-29T00:36:27;16.01;107.83
16505;HTU21D;8365;51.030;4.696;2023-05-29T00:38:58;15.91;108.20
16505;HTU21D;8365;51.030;4.696;2023-05-29T00:41:29;15.82;109.43
16505;HTU21D;8365;51.030;4.696;2023-05-29T00:44:00;15.72;109.90
16505;HTU21D;8365;51.030;4.696;2023-05-29T00:46:31;15.62;111.35
16505;HTU21D;8365;51.030;4.696;2023-05-29T00:49:04;15.45;111.94
16505;HTU21D;8365;51.030;4.696;2023-05-29T00:51:35;15.47;112.12
16505;HTU21D;8365;51.030;4.696;2023-05-29T00:54:07;15.49;111.90
16505;HTU21D;8365;51.030;4.696;2023-05-29T00:56:38;15.45;112.16
16505;HTU21D;8365;51.030;4.696;2023-05-29T00:59:11;15.53;111.79
16505;HTU21D;8365;51.030;4.696;2023-05-29T01:01:42;15.48;112.35
16505;HTU21D;8365;51.030;4.696;2023-05-29T01:04:14;15.26;113.29
16505;HTU21D;8365;51.030;4.696;2023-05-29T01:06:45;15.24;114.43
16505;HTU21D;8365;51.030;4.696;2023-05-29T01:09:16;15.24;112.85
16505;HTU21D;8365;51.030;4.696;2023-05-29T01:14:58;15.37;112.64
16505;HTU21D;8365;51.030;4.696;2023-05-29T01:17:40;15.37;112.48
16505;HTU21D;8365;51.030;4.696;2023-05-29T01:25:46;14.97;114.80
16505;HTU21D;8365;51.030;4.696;2023-05-29T01:28:21;14.87;115.18
16505;HTU21D;8365;51.030;4.696;2023-05-29T01:30:54;14.80;115.54
16505;HTU21D;8365;51.030;4.696;2023-05-29T01:33:26;14.87;115.38
16505;HTU21D;8365;51.030;4.696;2023-05-29T01:35:56;14.85;115.51
16505;HTU21D;8365;51.030;4.696;2023-05-29T01:38:27;14.89;114.63
16505;HTU21D;8365;51.030;4.696;2023-05-29T01:40:58;14.88;114.89
16505;HTU21D;8365;51.030;4.696;2023-05-29T01:43:29;14.86;114.96
16505;HTU21D;8365;51.030;4.696;2023-05-29T01:46:00;14.81;114.71
16505;HTU21D;8365;51.030;4.696;2023-05-29T01:48:31;14.93;114.12
16505;HTU21D;8365;51.030;4.696;2023-05-29T01:51:01;14.91;113.36
16505;HTU21D;8365;51.030;4.696;2023-05-29T01:53:32;14.94;113.17
16505;HTU21D;8365;51.030;4.696;2023-05-29T01:56:04;14.86;112.45
16505;HTU21D;8365;51.030;4.696;2023-05-29T01:58:35;14.72;113.73
16505;HTU21D;8365;51.030;4.696;2023-05-29T02:01:07;14.55;114.48
16505;HTU21D;8365;51.030;4.696;2023-05-29T02:03:37;14.62;113.31
16505;HTU21D;8365;51.030;4.696;2023-05-29T02:06:08;14.66;112.13
16505;HTU21D;8365;51.030;4.696;2023-05-29T02:08:39;14.50;112.67
16505;HTU21D;8365;51.030;4.696;2023-05-29T02:11:09;14.29;113.10
16505;HTU21D;8365;51.030;4.696;2023-05-29T02:13:41;14.34;112.07
16505;HTU21D;8365;51.030;4.696;2023-05-29T02:16:11;14.35;111.29
16505;HTU21D;8365;51.030;4.696;2023-05-29T02:18:42;14.17;110.77
16505;HTU21D;8365;51.030;4.696;2023-05-29T02:21:13;14.06;110.20
16505;HTU21D;8365;51.030;4.696;2023-05-29T02:23:44;14.13;109.83
16505;HTU21D;8365;51.030;4.696;2023-05-29T02:26:14;13.99;109.92
16505;HTU21D;8365;51.030;4.696;2023-05-29T02:28:45;13.85;109.77
16505;HTU21D;8365;51.030;4.696;2023-05-29T02:31:16;13.89;108.82
16505;HTU21D;8365;51.030;4.696;2023-05-29T02:33:49;13.83;108.53
16505;HTU21D;8365;51.030;4.696;2023-05-29T02:36:19;13.85;107.63
16505;HTU21D;8365;51.030;4.696;2023-05-29T02:38:52;13.84;107.82
16505;HTU21D;8365;51.030;4.696;2023-05-29T02:41:22;13.78;107.53
16505;HTU21D;8365;51.030;4.696;2023-05-29T02:43:53;13.79;107.24
16505;HTU21D;8365;51.030;4.696;2023-05-29T02:46:23;13.76;107.05
16505;HTU21D;8365;51.030;4.696;2023-05-29T02:48:57;13.73;107.24
16505;HTU21D;8365;51.030;4.696;2023-05-29T02:51:27;13.65;106.87
16505;HTU21D;8365;51.030;4.696;2023-05-29T02:53:58;13.67;106.30
16505;HTU21D;8365;51.030;4.696;2023-05-29T02:56:31;13.76;105.72
16505;HTU21D;8365;51.030;4.696;2023-05-29T02:59:01;13.66;106.14
16505;HTU21D;8365;51.030;4.696;2023-05-29T03:01:31;13.61;106.11
16505;HTU21D;8365;51.030;4.696;2023-05-29T03:04:03;13.70;104.86
16505;HTU21D;8365;51.030;4.696;2023-05-29T03:06:33;13.62;105.53
16505;HTU21D;8365;51.030;4.696;2023-05-29T03:09:04;13.66;105.49
16505;HTU21D;8365;51.030;4.696;2023-05-29T03:11:38;13.62;105.37
16505;HTU21D;8365;51.030;4.696;2023-05-29T03:14:11;13.52;105.14
16505;HTU21D;8365;51.030;4.696;2023-05-29T03:16:41;13.52;105.69
16505;HTU21D;8365;51.030;4.696;2023-05-29T03:19:11;13.58;104.47
16505;HTU21D;8365;51.030;4.696;2023-05-29T03:21:42;13.43;104.67
16505;HTU21D;8365;51.030;4.696;2023-05-29T03:24:13;13.40;105.40
16505;HTU21D;8365;51.030;4.696;2023-05-29T03:26:43;13.38;105.38
16505;HTU21D;8365;51.030;4.696;2023-05-29T03:29:14;13.39;104.95
16505;HTU21D;8365;51.030;4.696;2023-05-29T03:31:45;13.38;104.42
16505;HTU21D;8365;51.030;4.696;2023-05-29T03:34:15;13.31;105.03
16505;HTU21D;8365;51.030;4.696;2023-05-29T03:36:48;13.29;105.31
16505;HTU21D;8365;51.030;4.696;2023-05-29T03:39:19;13.15;104.97
16505;HTU21D;8365;51.030;4.696;2023-05-29T03:41:49;13.12;105.61
16505;HTU21D;8365;51.030;4.696;2023-05-29T03:44:20;13.24;105.01
16505;HTU21D;8365;51.030;4.696;2023-05-29T03:46:53;13.11;105.16
16505;HTU21D;8365;51.030;4.696;2023-05-29T03:49:23;13.07;106.12
16505;HTU21D;8365;51.030;4.696;2023-05-29T03:51:54;13.07;105.82
16505;HTU21D;8365;51.030;4.696;2023-05-29T03:54:24;13.11;104.93
16505;HTU21D;8365;51.030;4.696;2023-05-29T03:56:55;13.11;105.60
16505;HTU21D;8365;51.030;4.696;2023-05-29T03:59:25;12.97;106.11
16505;HTU21D;8365;51.030;4.696;2023-05-29T04:01:56;12.94;106.46
16505;HTU21D;8365;51.030;4.696;2023-05-29T04:04:29;13.01;106.15
16505;HTU21D;8365;51.030;4.696;2023-05-29T04:07:02;12.92;106.21
16505;HTU21D;8365;51.030;4.696;2023-05-29T04:09:33;12.80;107.13
16505;HTU21D;8365;51.030;4.696;2023-05-29T04:12:03;12.82;106.76
16505;HTU21D;8365;51.030;4.696;2023-05-29T04:14:36;12.81;106.69
16505;HTU21D;8365;51.030;4.696;2023-05-29T04:17:06;12.82;106.90
16505;HTU21D;8365;51.030;4.696;2023-05-29T04:19:37;12.76;107.22
16505;HTU21D;8365;51.030;4.696;2023-05-29T04:22:07;12.86;106.17
16505;HTU21D;8365;51.030;4.696;2023-05-29T04:24:38;12.82;107.00
16505;HTU21D;8365;51.030;4.696;2023-05-29T04:27:09;12.92;106.26
16505;HTU21D;8365;51.030;4.696;2023-05-29T04:29:43;12.75;106.64
16505;HTU21D;8365;51.030;4.696;2023-05-29T04:32:13;12.82;106.09
16505;HTU21D;8365;51.030;4.696;2023-05-29T04:34:44;12.80;106.20
16505;HTU21D;8365;51.030;4.696;2023-05-29T04:37:14;12.95;106.89
16505;HTU21D;8365;51.030;4.696;2023-05-29T04:39:48;12.80;106.56
16505;HTU21D;8365;51.030;4.696;2023-05-29T04:42:19;12.96;105.78
16505;HTU21D;8365;51.030;4.696;2023-05-29T04:44:49;13.11;105.69
16505;HTU21D;8365;51.030;4.696;2023-05-29T04:47:20;12.92;106.62
16505;HTU21D;8365;51.030;4.696;2023-05-29T04:49:50;13.04;106.11
16505;HTU21D;8365;51.030;4.696;2023-05-29T04:52:21;13.19;104.97
16505;HTU21D;8365;51.030;4.696;2023-05-29T04:54:53;13.14;105.21
16505;HTU21D;8365;51.030;4.696;2023-05-29T04:57:24;13.10;105.22
16505;HTU21D;8365;51.030;4.696;2023-05-29T04:59:54;13.33;103.88
16505;HTU21D;8365;51.030;4.696;2023-05-29T05:02:27;13.12;104.76
16505;HTU21D;8365;51.030;4.696;2023-05-29T05:04:58;13.26;104.93
16505;HTU21D;8365;51.030;4.696;2023-05-29T05:07:30;13.38;104.47
16505;HTU21D;8365;51.030;4.696;2023-05-29T05:10:04;13.35;104.69
16505;HTU21D;8365;51.030;4.696;2023-05-29T05:12:37;13.38;103.89
16505;HTU21D;8365;51.030;4.696;2023-05-29T05:15:08;13.40;104.28
16505;HTU21D;8365;51.030;4.696;2023-05-29T05:17:38;13.50;103.92
16505;HTU21D;8365;51.030;4.696;2023-05-29T05:20:10;13.41;104.72
16505;HTU21D;8365;51.030;4.696;2023-05-29T05:22:41;13.43;104.68
16505;HTU21D;8365;51.030;4.696;2023-05-29T05:25:11;13.43;104.47
16505;HTU21D;8365;51.030;4.696;2023-05-29T05:27:42;13.48;103.79
16505;HTU21D;8365;51.030;4.696;2023-05-29T05:30:13;13.58;104.18
16505;HTU21D;8365;51.030;4.696;2023-05-29T05:32:43;13.69;104.18
16505;HTU21D;8365;51.030;4.696;2023-05-29T05:35:14;13.59;103.99
16505;HTU21D;8365;51.030;4.696;2023-05-29T05:37:44;13.58;104.31
16505;HTU21D;8365;51.030;4.696;2023-05-29T05:40:15;13.76;103.16
16505;HTU21D;8365;51.030;4.696;2023-05-29T05:42:45;13.66;103.69
16505;HTU21D;8365;51.030;4.696;2023-05-29T05:45:16;13.74;103.61
16505;HTU21D;8365;51.030;4.696;2023-05-29T05:47:47;13.68;102.57
16505;HTU21D;8365;51.030;4.696;2023-05-29T05:50:17;13.68;103.25
16505;HTU21D;8365;51.030;4.696;2023-05-29T05:52:48;13.76;102.36
16505;HTU21D;8365;51.030;4.696;2023-05-29T05:55:18;13.92;101.76
16505;HTU21D;8365;51.030;4.696;2023-05-29T05:57:49;14.11;101.06
16505;HTU21D;8365;51.030;4.696;2023-05-29T06:00:19;14.15;100.35
16505;HTU21D;8365;51.030;4.696;2023-05-29T06:02:50;14.13;100.92
16505;HTU21D;8365;51.030;4.696;2023-05-29T06:05:20;14.35;99.61
16505;HTU21D;8365;51.030;4.696;2023-05-29T06:07:51;14.36;99.13
16505;HTU21D;8365;51.030;4.696;2023-05-29T06:10:21;14.49;98.71
16505;HTU21D;8365;51.030;4.696;2023-05-29T06:12:52;14.57;98.29
16505;HTU21D;8365;51.030;4.696;2023-05-29T06:15:22;14.70;97.52
16505;HTU21D;8365;51.030;4.696;2023-05-29T06:17:55;14.73;96.48
16505;HTU21D;8365;51.030;4.696;2023-05-29T06:20:26;14.79;95.74
16505;HTU21D;8365;51.030;4.696;2023-05-29T06:22:56;14.78;96.53
16505;HTU21D;8365;51.030;4.696;2023-05-29T06:25:27;14.72;95.54
16505;HTU21D;8365;51.030;4.696;2023-05-29T06:28:03;14.89;94.76
16505;HTU21D;8365;51.030;4.696;2023-05-29T06:30:36;14.82;94.68
16505;HTU21D;8365;51.030;4.696;2023-05-29T06:33:06;14.91;95.20
16505;HTU21D;8365;51.030;4.696;2023-05-29T06:35:37;15.03;93.71
16505;HTU21D;8365;51.030;4.696;2023-05-29T06:38:07;15.18;93.89
16505;HTU21D;8365;51.030;4.696;2023-05-29T06:40:37;15.24;93.60
16505;HTU21D;8365;51.030;4.696;2023-05-29T06:43:08;15.33;92.85
16505;HTU21D;8365;51.030;4.696;2023-05-29T06:45:40;15.39;92.39
16505;HTU21D;8365;51.030;4.696;2023-05-29T06:48:11;15.52;92.01
16505;HTU21D;8365;51.030;4.696;2023-05-29T06:50:41;15.56;90.90
16505;HTU21D;8365;51.030;4.696;2023-05-29T06:53:11;15.72;90.91
16505;HTU21D;8365;51.030;4.696;2023-05-29T06:55:42;15.66;89.40
16505;HTU21D;8365;51.030;4.696;2023-05-29T06:58:13;15.84;89.02
16505;HTU21D;8365;51.030;4.696;2023-05-29T07:00:43;15.91;88.14
16505;HTU21D;8365;51.030;4.696;2023-05-29T07:03:13;15.96;88.21
16505;HTU21D;8365;51.030;4.696;2023-05-29T07:05:44;16.13;87.86
16505;HTU21D;8365;51.030;4.696;2023-05-29T07:08:15;16.10;87.34
16505;HTU21D;8365;51.030;4.696;2023-05-29T07:10:45;16.45;86.29
16505;HTU21D;8365;51.030;4.696;2023-05-29T07:13:17;16.40;86.16
16505;HTU21D;8365;51.030;4.696;2023-05-29T07:15:48;16.58;85.71
16505;HTU21D;8365;51.030;4.696;2023-05-29T07:18:19;16.56;84.87
16505;HTU21D;8365;51.030;4.696;2023-05-29T07:20:49;16.65;85.84
16505;HTU21D;8365;51.030;4.696;2023-05-29T07:23:23;16.58;84.64
16505;HTU21D;8365;51.030;4.696;2023-05-29T07:25:54;16.77;83.78
16505;HTU21D;8365;51.030;4.696;2023-05-29T07:28:24;16.81;84.52
16505;HTU21D;8365;51.030;4.696;2023-05-29T07:30:55;16.91;83.40
16505;HTU21D;8365;51.030;4.696;2023-05-29T07:33:25;17.06;83.81
16505;HTU21D;8365;51.030;4.696;2023-05-29T07:35:56;16.82;83.62
16505;HTU21D;8365;51.030;4.696;2023-05-29T07:38:26;17.00;83.26
16505;HTU21D;8365;51.030;4.696;2023-05-29T07:40:57;17.14;82.04
16505;HTU21D;8365;51.030;4.696;2023-05-29T07:43:28;17.06;83.10
16505;HTU21D;8365;51.030;4.696;2023-05-29T07:45:58;17.23;82.10
16505;HTU21D;8365;51.030;4.696;2023-05-29T07:48:31;16.94;81.84
16505;HTU21D;8365;51.030;4.696;2023-05-29T07:51:04;17.31;83.25
16505;HTU21D;8365;51.030;4.696;2023-05-29T07:53:39;17.31;81.17
16505;HTU21D;8365;51.030;4.696;2023-05-29T07:56:12;17.53;80.92
16505;HTU21D;8365;51.030;4.696;2023-05-29T07:58:43;17.73;80.29
16505;HTU21D;8365;51.030;4.696;2023-05-29T08:01:14;17.82;79.26
16505;HTU21D;8365;51.030;4.696;2023-05-29T08:03:45;17.79;78.88
16505;HTU21D;8365;51.030;4.696;2023-05-29T08:06:15;17.93;80.24
16505;HTU21D;8365;51.030;4.696;2023-05-29T08:08:46;18.10;78.40
16505;HTU21D;8365;51.030;4.696;2023-05-29T08:11:16;18.03;78.24
16505;HTU21D;8365;51.030;4.696;2023-05-29T08:13:47;18.23;77.40
16505;HTU21D;8365;51.030;4.696;2023-05-29T08:16:17;18.14;77.50
16505;HTU21D;8365;51.030;4.696;2023-05-29T08:18:48;17.87;78.19
16505;HTU21D;8365;51.030;4.696;2023-05-29T08:21:18;17.92;77.88
16505;HTU21D;8365;51.030;4.696;2023-05-29T08:23:49;18.24;77.14
16505;HTU21D;8365;51.030;4.696;2023-05-29T08:26:19;18.20;77.62
16505;HTU21D;8365;51.030;4.696;2023-05-29T08:28:54;18.49;74.75
16505;HTU21D;8365;51.030;4.696;2023-05-29T08:31:25;18.28;76.73
16505;HTU21D;8365;51.030;4.696;2023-05-29T08:33:55;18.64;75.25
16505;HTU21D;8365;51.030;4.696;2023-05-29T08:36:26;18.48;73.83
16505;HTU21D;8365;51.030;4.696;2023-05-29T08:38:59;18.57;74.09
16505;HTU21D;8365;51.030;4.696;2023-05-29T08:41:44;18.54;73.41
16505;HTU21D;8365;51.030;4.696;2023-05-29T08:44:21;18.74;74.54
16505;HTU21D;8365;51.030;4.696;2023-05-29T08:46:55;18.83;73.74
16505;HTU21D;8365;51.030;4.696;2023-05-29T08:49:29;19.01;73.61
16505;HTU21D;8365;51.030;4.696;2023-05-29T08:52:12;19.03;71.31
16505;HTU21D;8365;51.030;4.696;2023-05-29T08:54:46;19.24;70.00
16505;HTU21D;8365;51.030;4.696;2023-05-29T08:57:17;19.47;71.29
16505;HTU21D;8365;51.030;4.696;2023-05-29T08:59:51;19.74;68.58
16505;HTU21D;8365;51.030;4.696;2023-05-29T09:02:22;19.73;67.09
16505;HTU21D;8365;51.030;4.696;2023-05-29T09:04:53;19.72;67.39
16505;HTU21D;8365;51.030;4.696;2023-05-29T09:07:25;19.61;68.91
16505;HTU21D;8365;51.030;4.696;2023-05-29T09:09:56;20.09;65.96
16505;HTU21D;8365;51.030;4.696;2023-05-29T09:12:26;19.91;67.12
16505;HTU21D;8365;51.030;4.696;2023-05-29T09:14:57;20.11;64.94
16505;HTU21D;8365;51.030;4.696;2023-05-29T09:17:31;19.77;64.20
16505;HTU21D;8365;51.030;4.696;2023-05-29T09:20:03;19.60;65.42
16505;HTU21D;8365;51.030;4.696;2023-05-29T09:22:54;20.04;65.12
16505;HTU21D;8365;51.030;4.696;2023-05-29T09:25:27;20.07;63.76
16505;HTU21D;8365;51.030;4.696;2023-05-29T09:28:01;19.74;64.88
16505;HTU21D;8365;51.030;4.696;2023-05-29T09:30:40;19.65;64.63
16505;HTU21D;8365;51.030;4.696;2023-05-29T09:33:13;20.20;62.32
16505;HTU21D;8365;51.030;4.696;2023-05-29T09:35:45;20.75;59.72
16505;HTU21D;8365;51.030;4.696;2023-05-29T09:38:18;20.98;58.48
16505;HTU21D;8365;51.030;4.696;2023-05-29T09:40:48;21.35;58.07
16505;HTU21D;8365;51.030;4.696;2023-05-29T09:43:19;21.48;57.38
16505;HTU21D;8365;51.030;4.696;2023-05-29T09:45:50;21.23;56.73
16505;HTU21D;8365;51.030;4.696;2023-05-29T09:48:25;21.60;55.82
16505;HTU21D;8365;51.030;4.696;2023-05-29T09:50:56;21.64;55.85
16505;HTU21D;8365;51.030;4.696;2023-05-29T09:53:28;21.38;56.40
16505;HTU21D;8365;51.030;4.696;2023-05-29T09:55:59;22.08;54.20
16505;HTU21D;8365;51.030;4.696;2023-05-29T09:58:32;22.31;53.22
16505;HTU21D;8365;51.030;4.696;2023-05-29T10:01:04;22.41;51.55
16505;HTU21D;8365;51.030;4.696;2023-05-29T10:03:36;22.08;52.11
16505;HTU21D;8365;51.030;4.696;2023-05-29T10:06:16;23.29;49.37
16505;HTU21D;8365;51.030;4.696;2023-05-29T10:08:50;23.74;47.13
16505;HTU21D;8365;51.030;4.696;2023-05-29T10:11:24;23.46;47.63
16505;HTU21D;8365;51.030;4.696;2023-05-29T10:14:00;23.72;47.51
16505;HTU21D;8365;51.030;4.696;2023-05-29T10:16:31;24.91;44.51
16505;HTU21D;8365;51.030;4.696;2023-05-29T10:19:06;25.65;42.38
16505;HTU21D;8365;51.030;4.696;2023-05-29T10:21:43;24.39;43.78
16505;HTU21D;8365;51.030;4.696;2023-05-29T10:24:15;25.62;42.14
16505;HTU21D;8365;51.030;4.696;2023-05-29T10:26:48;25.40;42.71
16505;HTU21D;8365;51.030;4.696;2023-05-29T10:32:07;26.71;39.05
16505;HTU21D;8365;51.030;4.696;2023-05-29T10:35:00;26.15;40.21
16505;HTU21D;8365;51.030;4.696;2023-05-29T10:37:44;27.12;39.45
16505;HTU21D;8365;51.030;4.696;2023-05-29T10:40:14;26.41;39.97
16505;HTU21D;8365;51.030;4.696;2023-05-29T10:42:48;26.41;39.78
16505;HTU21D;8365;51.030;4.696;2023-05-29T10:50:45;26.63;38.98
16505;HTU21D;8365;51.030;4.696;2023-05-29T10:53:18;27.43;37.38
16505;HTU21D;8365;51.030;4.696;2023-05-29T10:55:53;28.65;35.92
16505;HTU21D;8365;51.030;4.696;2023-05-29T10:58:25;28.71;35.70
16505;HTU21D;8365;51.030;4.696;2023-05-29T11:00:56;29.21;35.00
16505;HTU21D;8365;51.030;4.696;2023-05-29T11:03:32;29.64;33.33
16505;HTU21D;8365;51.030;4.696;2023-05-29T11:06:07;30.69;31.79
16505;HTU21D;8365;51.030;4.696;2023-05-29T11:08:54;30.28;31.81
16505;HTU21D;8365;51.030;4.696;2023-05-29T11:14:02;31.29;30.84
16505;HTU21D;8365;51.030;4.696;2023-05-29T11:19:07;30.24;32.24
16505;HTU21D;8365;51.030;4.696;2023-05-29T11:22:06;30.86;30.68
16505;HTU21D;8365;51.030;4.696;2023-05-29T11:24:40;30.32;31.26
16505;HTU21D;8365;51.030;4.696;2023-05-29T11:27:10;30.61;30.63
16505;HTU21D;8365;51.030;4.696;2023-05-29T11:29:44;29.57;32.60
16505;HTU21D;8365;51.030;4.696;2023-05-29T11:32:16;30.83;30.17
16505;HTU21D;8365;51.030;4.696;2023-05-29T11:34:48;31.04;29.87
16505;HTU21D;8365;51.030;4.696;2023-05-29T11:37:21;30.40;30.42
16505;HTU21D;8365;51.030;4.696;2023-05-29T11:39:52;30.82;29.79
16505;HTU21D;8365;51.030;4.696;2023-05-29T11:42:25;30.45;30.69
16505;HTU21D;8365;51.030;4.696;2023-05-29T11:44:56;31.48;29.56
16505;HTU21D;8365;51.030;4.696;2023-05-29T11:47:58;31.08;29.84
16505;HTU21D;8365;51.030;4.696;2023-05-29T11:50:33;32.10;28.78
16505;HTU21D;8365;51.030;4.696;2023-05-29T11:53:07;29.72;31.92
16505;HTU21D;8365;51.030;4.696;2023-05-29T11:55:40;29.66;31.81
16505;HTU21D;8365;51.030;4.696;2023-05-29T11:58:11;30.12;32.07
16505;HTU21D;8365;51.030;4.696;2023-05-29T12:00:42;30.82;30.24
16505;HTU21D;8365;51.030;4.696;2023-05-29T12:03:13;31.22;29.76
16505;HTU21D;8365;51.030;4.696;2023-05-29T12:05:45;31.24;29.51
16505;HTU21D;8365;51.030;4.696;2023-05-29T12:08:16;31.89;28.04
16505;HTU21D;8365;51.030;4.696;2023-05-29T12:10:50;31.21;29.06
16505;HTU21D;8365;51.030;4.696;2023-05-29T12:13:21;31.72;29.31
16505;HTU21D;8365;51.030;4.696;2023-05-29T12:15:56;30.38;31.20
16505;HTU21D;8365;51.030;4.696;2023-05-29T12:18:31;31.43;29.42
16505;HTU21D;8365;51.030;4.696;2023-05-29T12:21:04;31.39;30.06
16505;HTU21D;8365;51.030;4.696;2023-05-29T12:23:37;31.09;30.04
16505;HTU21D;8365;51.030;4.696;2023-05-29T12:26:09;30.91;30.19
16505;HTU21D;8365;51.030;4.696;2023-05-29T12:28:44;31.46;30.08
16505;HTU21D;8365;51.030;4.696;2023-05-29T12:31:26;31.35;29.29
16505;HTU21D;8365;51.030;4.696;2023-05-29T12:34:08;31.79;29.18
16505;HTU21D;8365;51.030;4.696;2023-05-29T12:36:41;29.42;33.09
16505;HTU21D;8365;51.030;4.696;2023-05-29T12:39:11;30.59;30.23
16505;HTU21D;8365;51.030;4.696;2023-05-29T12:41:42;29.36;32.81
16505;HTU21D;8365;51.030;4.696;2023-05-29T12:44:12;31.20;31.09
16505;HTU21D;8365;51.030;4.696;2023-05-29T12:46:43;31.45;30.04
16505;HTU21D;8365;51.030;4.696;2023-05-29T12:49:17;31.95;30.09
16505;HTU21D;8365;51.030;4.696;2023-05-29T12:51:51;31.52;29.41
16505;HTU21D;8365;51.030;4.696;2023-05-29T12:54:24;31.30;30.30
16505;HTU21D;8365;51.030;4.696;2023-05-29T12:56:55;30.76;30.96
16505;HTU21D;8365;51.030;4.696;2023-05-29T12:59:26;30.00;32.07
16505;HTU21D;8365;51.030;4.696;2023-05-29T13:01:56;30.41;31.57
16505;HTU21D;8365;51.030;4.696;2023-05-29T13:04:27;30.32;31.88
16505;HTU21D;8365;51.030;4.696;2023-05-29T13:06:57;30.12;32.22
16505;HTU21D;8365;51.030;4.696;2023-05-29T13:09:28;29.23;33.41
16505;HTU21D;8365;51.030;4.696;2023-05-29T13:11:58;30.33;32.32
16505;HTU21D;8365;51.030;4.696;2023-05-29T13:14:29;30.45;31.88
16505;HTU21D;8365;51.030;4.696;2023-05-29T13:16:59;29.02;33.70
16505;HTU21D;8365;51.030;4.696;2023-05-29T13:19:30;29.34;32.39
16505;HTU21D;8365;51.030;4.696;2023-05-29T13:22:00;28.54;34.40
16505;HTU21D;8365;51.030;4.696;2023-05-29T13:24:30;30.20;32.19
16505;HTU21D;8365;51.030;4.696;2023-05-29T13:27:01;30.27;31.36
16505;HTU21D;8365;51.030;4.696;2023-05-29T13:29:32;29.16;34.10
16505;HTU21D;8365;51.030;4.696;2023-05-29T13:32:03;29.24;33.83
16505;HTU21D;8365;51.030;4.696;2023-05-29T13:34:33;30.20;33.38
16505;HTU21D;8365;51.030;4.696;2023-05-29T13:37:04;28.85;35.28
16505;HTU21D;8365;51.030;4.696;2023-05-29T13:39:34;29.88;32.16
16505;HTU21D;8365;51.030;4.696;2023-05-29T13:42:07;29.83;32.76
16505;HTU21D;8365;51.030;4.696;2023-05-29T13:44:38;30.76;31.61
16505;HTU21D;8365;51.030;4.696;2023-05-29T13:47:08;30.48;31.45
16505;HTU21D;8365;51.030;4.696;2023-05-29T13:49:42;30.85;31.18
16505;HTU21D;8365;51.030;4.696;2023-05-29T13:52:15;31.22;30.48
16505;HTU21D;8365;51.030;4.696;2023-05-29T13:54:49;30.62;31.28
16505;HTU21D;8365;51.030;4.696;2023-05-29T13:57:19;31.28;29.74
16505;HTU21D;8365;51.030;4.696;2023-05-29T13:59:50;30.19;32.20
16505;HTU21D;8365;51.030;4.696;2023-05-29T14:02:20;30.74;30.99
16505;HTU21D;8365;51.030;4.696;2023-05-29T14:04:53;30.82;30.87
16505;HTU21D;8365;51.030;4.696;2023-05-29T14:07:23;30.41;31.19
16505;HTU21D;8365;51.030;4.696;2023-05-29T14:09:55;28.65;33.98
16505;HTU21D;8365;51.030;4.696;2023-05-29T14:12:25;29.16;32.46
16505;HTU21D;8365;51.030;4.696;2023-05-29T14:14:56;29.60;32.13
16505;HTU21D;8365;51.030;4.696;2023-05-29T14:17:26;29.95;32.04
16505;HTU21D;8365;51.030;4.696;2023-05-29T14:19:56;29.45;32.44
16505;HTU21D;8365;51.030;4.696;2023-05-29T14:22:27;29.68;31.71
16505;HTU21D;8365;51.030;4.696;2023-05-29T14:24:57;29.67;32.52
16505;HTU21D;8365;51.030;4.696;2023-05-29T14:27:30;29.72;32.23
16505;HTU21D;8365;51.030;4.696;2023-05-29T14:30:00;29.93;32.31
16505;HTU21D;8365;51.030;4.696;2023-05-29T14:32:31;30.35;31.14
16505;HTU21D;8365;51.030;4.696;2023-05-29T14:35:01;30.15;31.04
16505;HTU21D;8365;51.030;4.696;2023-05-29T14:37:32;28.49;33.49
16505;HTU21D;8365;51.030;4.696;2023-05-29T14:40:03;29.01;32.57
16505;HTU21D;8365;51.030;4.696;2023-05-29T14:42:34;29.15;32.41
16505;HTU21D;8365;51.030;4.696;2023-05-29T14:45:05;28.87;33.32
16505;HTU21D;8365;51.030;4.696;2023-05-29T14:47:36;28.48;33.96
16505;HTU21D;8365;51.030;4.696;2023-05-29T14:50:09;28.57;33.83
16505;HTU21D;8365;51.030;4.696;2023-05-29T14:52:40;29.07;32.44
16505;HTU21D;8365;51.030;4.696;2023-05-29T14:55:10;27.66;34.82
16505;HTU21D;8365;51.030;4.696;2023-05-29T14:57:41;27.67;34.83
16505;HTU21D;8365;51.030;4.696;2023-05-29T15:00:12;28.24;33.61
16505;HTU21D;8365;51.030;4.696;2023-05-29T15:02:42;27.89;34.56
16505;HTU21D;8365;51.030;4.696;2023-05-29T15:05:13;27.58;34.75
16505;HTU21D;8365;51.030;4.696;2023-05-29T15:07:43;28.09;33.87
16505;HTU21D;8365;51.030;4.696;2023-05-29T15:10:14;28.06;33.79
16505;HTU21D;8365;51.030;4.696;2023-05-29T15:12:47;28.58;33.37
16505;HTU21D;8365;51.030;4.696;2023-05-29T15:15:20;27.99;33.84
16505;HTU21D;8365;51.030;4.696;2023-05-29T15:17:51;27.70;34.22
16505;HTU21D;8365;51.030;4.696;2023-05-29T15:20:28;26.39;36.80
16505;HTU21D;8365;51.030;4.696;2023-05-29T15:22:58;27.06;35.34
16505;HTU21D;8365;51.030;4.696;2023-05-29T15:25:29;27.35;35.25
16505;HTU21D;8365;51.030;4.696;2023-05-29T15:27:59;27.15;34.86
16505;HTU21D;8365;51.030;4.696;2023-05-29T15:30:32;27.35;35.13
16505;HTU21D;8365;51.030;4.696;2023-05-29T15:33:06;27.16;34.61
16505;HTU21D;8365;51.030;4.696;2023-05-29T15:35:38;27.05;34.19
16505;HTU21D;8365;51.030;4.696;2023-05-29T15:38:09;25.96;35.15
16505;HTU21D;8365;51.030;4.696;2023-05-29T15:40:43;26.48;33.92
16505;HTU21D;8365;51.030;4.696;2023-05-29T15:43:15;26.31;33.99
16505;HTU21D;8365;51.030;4.696;2023-05-29T15:45:45;26.73;33.65
16505;HTU21D;8365;51.030;4.696;2023-05-29T15:48:16;26.41;33.22
16505;HTU21D;8365;51.030;4.696;2023-05-29T15:50:47;26.85;32.67
16505;HTU21D;8365;51.030;4.696;2023-05-29T15:53:17;26.15;34.37
16505;HTU21D;8365;51.030;4.696;2023-05-29T15:55:48;27.12;32.87
16505;HTU21D;8365;51.030;4.696;2023-05-29T15:58:20;27.58;33.53
16505;HTU21D;8365;51.030;4.696;2023-05-29T16:00:52;27.15;32.24
16505;HTU21D;8365;51.030;4.696;2023-05-29T16:03:22;27.51;32.10
16505;HTU21D;8365;51.030;4.696;2023-05-29T16:05:53;27.79;32.23
16505;HTU21D;8365;51.030;4.696;2023-05-29T16:08:24;27.83;30.57
16505;HTU21D;8365;51.030;4.696;2023-05-29T16:10:55;27.65;29.80
16505;HTU21D;8365;51.030;4.696;2023-05-29T16:13:27;27.69;29.20
16505;HTU21D;8365;51.030;4.696;2023-05-29T16:15:57;27.70;29.05